createdAt,value
2014-08-05T00:00:07.962Z,0
2014-08-05T00:00:26.447Z,0
2014-08-05T00:00:44.527Z,0
2014-08-05T00:01:03.011Z,0
2014-08-05T00:01:21.089Z,0
2014-08-05T00:01:39.373Z,0
2014-08-05T00:01:57.654Z,0
2014-08-05T00:02:15.935Z,0
2014-08-05T00:02:34.232Z,0
2014-08-05T00:02:52.515Z,0
2014-08-05T00:03:11.000Z,0
2014-08-05T00:03:29.078Z,0
2014-08-05T00:03:47.361Z,0
2014-08-05T00:04:05.658Z,0
2014-08-05T00:04:23.924Z,0
2014-08-05T00:04:42.205Z,0
2014-08-05T00:05:00.707Z,0
2014-08-05T00:05:18.785Z,0
2014-08-05T00:05:37.066Z,0
2014-08-05T00:05:55.553Z,0
2014-08-05T00:06:13.631Z,0
2014-08-05T00:06:32.115Z,0
2014-08-05T00:06:50.396Z,0
2014-08-05T00:07:08.477Z,0
2014-08-05T00:07:26.759Z,0
2014-08-05T00:07:45.243Z,0
2014-08-05T00:08:03.322Z,0
2014-08-05T00:08:21.603Z,0
2014-08-05T00:08:39.885Z,0
2014-08-05T00:08:58.166Z,0
2014-08-05T00:09:16.652Z,0
2014-08-05T00:09:34.934Z,0
2014-08-05T00:09:53.012Z,0
2014-08-05T00:10:11.295Z,0
2014-08-05T00:10:29.779Z,0
2014-08-05T00:10:47.873Z,0
2014-08-05T00:11:06.154Z,0
2014-08-05T00:11:24.422Z,0
2014-08-05T00:11:42.703Z,0
2014-08-05T00:12:00.984Z,0
2014-08-05T00:12:19.268Z,0
2014-08-05T00:12:37.565Z,0
2014-08-05T00:12:55.846Z,0
2014-08-05T00:13:14.127Z,0
2014-08-05T00:13:32.411Z,0
2014-08-05T00:13:50.896Z,0
2014-08-05T00:14:09.177Z,0
2014-08-05T00:14:27.257Z,0
2014-08-05T00:14:45.538Z,0
2014-08-05T00:15:03.820Z,0
2014-08-05T00:15:22.304Z,0
2014-08-05T00:15:40.384Z,0
2014-08-05T00:15:58.681Z,0
2014-08-05T00:16:17.150Z,0
2014-08-05T00:16:35.244Z,0
2014-08-05T00:16:53.526Z,0
2014-08-05T00:17:11.807Z,0
2014-08-05T00:17:30.088Z,0
2014-08-05T00:17:48.576Z,0
2014-08-05T00:18:06.654Z,0
2014-08-05T00:18:24.935Z,0
2014-08-05T00:18:43.218Z,0
2014-08-05T00:19:01.499Z,0
2014-08-05T00:19:19.781Z,0
2014-08-05T00:19:38.062Z,0
2014-08-05T00:19:56.345Z,0
2014-08-05T00:20:14.642Z,0
2014-08-05T00:20:32.923Z,0
2014-08-05T00:20:51.207Z,0
2014-08-05T00:21:09.691Z,0
2014-08-05T00:21:27.769Z,0
2014-08-05T00:21:46.050Z,0
2014-08-05T00:22:04.536Z,0
2014-08-05T00:22:22.614Z,0
2014-08-05T00:22:40.895Z,0
2014-08-05T00:22:59.381Z,0
2014-08-05T00:23:17.460Z,0
2014-08-05T00:23:35.741Z,0
2014-08-05T00:23:54.022Z,0
2014-08-05T00:24:12.525Z,0
2014-08-05T00:24:30.603Z,0
2014-08-05T00:24:48.869Z,0
2014-08-05T00:25:07.168Z,0
2014-08-05T00:25:25.449Z,0
2014-08-05T00:25:43.730Z,0
2014-08-05T00:26:02.011Z,0
2014-08-05T00:26:20.498Z,0
2014-08-05T00:26:38.576Z,0
2014-08-05T00:26:56.857Z,0
2014-08-05T00:27:15.140Z,0
2014-08-05T00:27:33.422Z,0
2014-08-05T00:27:51.703Z,0
2014-08-05T00:28:09.984Z,0
2014-08-05T00:28:28.267Z,0
2014-08-05T00:28:46.564Z,0
2014-08-05T00:29:04.846Z,0
2014-08-05T00:29:23.129Z,0
2014-08-05T00:29:41.613Z,0
2014-08-05T00:29:59.691Z,0
2014-08-05T00:30:17.973Z,0
2014-08-05T00:30:36.257Z,0
2014-08-05T00:30:54.554Z,0
2014-08-05T00:31:12.835Z,0
2014-08-05T00:31:31.118Z,0
2014-08-05T00:31:49.399Z,0
2014-08-05T00:32:07.681Z,0
2014-08-05T00:32:25.978Z,0
2014-08-05T00:32:44.260Z,0
2014-08-05T00:33:02.541Z,0
2014-08-05T00:33:20.822Z,0
2014-08-05T00:33:39.121Z,0
2014-08-05T00:33:57.590Z,0
2014-08-05T00:34:15.684Z,0
2014-08-05T00:34:33.965Z,0
2014-08-05T00:34:52.248Z,0
2014-08-05T00:35:10.733Z,0
2014-08-05T00:35:28.811Z,0
2014-08-05T00:35:47.110Z,0
2014-08-05T00:36:05.375Z,0
2014-08-05T00:36:23.656Z,0
2014-08-05T00:36:42.158Z,0
2014-08-05T00:37:00.237Z,0
2014-08-05T00:37:18.518Z,0
2014-08-05T00:37:36.799Z,0
2014-08-05T00:37:55.286Z,0
2014-08-05T00:38:13.365Z,0
2014-08-05T00:38:31.849Z,0
2014-08-05T00:38:49.929Z,0
2014-08-05T00:39:08.210Z,0
2014-08-05T00:39:26.507Z,0
2014-08-05T00:39:44.788Z,0
2014-08-05T00:40:03.071Z,0
2014-08-05T00:40:21.555Z,0
2014-08-05T00:40:39.633Z,0
2014-08-05T00:40:57.916Z,0
2014-08-05T00:41:16.198Z,0
2014-08-05T00:41:34.682Z,0
2014-08-05T00:41:52.760Z,0
2014-08-05T00:42:11.044Z,0
2014-08-05T00:42:29.529Z,0
2014-08-05T00:42:47.623Z,0
2014-08-05T00:43:06.108Z,0
2014-08-05T00:43:24.186Z,0
2014-08-05T00:43:42.467Z,0
2014-08-05T00:44:00.749Z,0
2014-08-05T00:44:19.032Z,0
2014-08-05T00:44:37.516Z,0
2014-08-05T00:44:55.594Z,0
2014-08-05T00:45:13.894Z,0
2014-08-05T00:45:32.160Z,0
2014-08-05T00:45:50.644Z,0
2014-08-05T00:46:08.941Z,0
2014-08-05T00:46:27.021Z,0
2014-08-05T00:46:45.302Z,0
2014-08-05T00:47:03.584Z,0
2014-08-05T00:47:21.867Z,0
2014-08-05T00:47:40.148Z,0
2014-08-05T00:47:58.445Z,0
2014-08-05T00:48:16.726Z,0
2014-08-05T00:48:35.009Z,0
2014-08-05T00:48:53.290Z,0
2014-08-05T00:49:11.571Z,0
2014-08-05T00:49:29.854Z,0
2014-08-05T00:49:48.136Z,0
2014-08-05T00:50:06.620Z,0
2014-08-05T00:50:24.698Z,0
2014-08-05T00:50:43.185Z,0
2014-08-05T00:51:01.279Z,0
2014-08-05T00:51:19.560Z,0
2014-08-05T00:51:37.844Z,0
2014-08-05T00:51:56.125Z,0
2014-08-05T00:52:14.625Z,0
2014-08-05T00:52:32.703Z,0
2014-08-05T00:52:50.986Z,0
2014-08-05T00:53:09.268Z,0
2014-08-05T00:53:27.752Z,0
2014-08-05T00:53:45.832Z,0
2014-08-05T00:54:04.113Z,0
2014-08-05T00:54:22.410Z,0
2014-08-05T00:54:40.691Z,0
2014-08-05T00:54:59.178Z,0
2014-08-05T00:55:17.240Z,0
2014-08-05T00:55:35.756Z,0
2014-08-05T00:55:53.820Z,0
2014-08-05T00:56:12.305Z,0
2014-08-05T00:56:30.586Z,0
2014-08-05T00:56:48.682Z,0
2014-08-05T00:57:06.963Z,0
2014-08-05T00:57:25.244Z,0
2014-08-05T00:57:43.526Z,0
2014-08-05T00:58:01.809Z,0
2014-08-05T00:58:20.293Z,0
2014-08-05T00:58:38.387Z,0
2014-08-05T00:58:56.655Z,0
2014-08-05T00:59:15.139Z,0
2014-08-05T00:59:33.217Z,0
2014-08-05T00:59:51.514Z,0
2014-08-05T01:00:09.797Z,0
2014-08-05T01:00:28.078Z,0
2014-08-05T01:00:46.360Z,0
2014-08-05T01:01:04.643Z,0
2014-08-05T01:01:22.924Z,0
2014-08-05T01:01:41.205Z,0
2014-08-05T01:01:59.487Z,0
2014-08-05T01:02:17.770Z,0
2014-08-05T01:02:36.067Z,0
2014-08-05T01:02:54.348Z,0
2014-08-05T01:03:12.631Z,0
2014-08-05T01:03:31.116Z,0
2014-08-05T01:03:49.194Z,0
2014-08-05T01:04:07.475Z,0
2014-08-05T01:04:25.758Z,0
2014-08-05T01:04:44.040Z,0
2014-08-05T01:05:02.540Z,0
2014-08-05T01:05:20.620Z,0
2014-08-05T01:05:38.901Z,0
2014-08-05T01:05:57.182Z,0
2014-08-05T01:06:15.463Z,0
2014-08-05T01:06:33.950Z,0
2014-08-05T01:06:52.028Z,0
2014-08-05T01:07:10.309Z,0
2014-08-05T01:07:28.592Z,0
2014-08-05T01:07:46.874Z,0
2014-08-05T01:08:05.155Z,0
2014-08-05T01:08:23.436Z,0
2014-08-05T01:08:41.719Z,0
2014-08-05T01:09:00.001Z,0
2014-08-05T01:09:18.298Z,0
2014-08-05T01:09:36.581Z,0
2014-08-05T01:09:54.862Z,0
2014-08-05T01:10:13.143Z,0
2014-08-05T01:10:31.425Z,0
2014-08-05T01:10:49.709Z,0
2014-08-05T01:11:08.193Z,0
2014-08-05T01:11:26.287Z,0
2014-08-05T01:11:44.570Z,0
2014-08-05T01:12:02.836Z,0
2014-08-05T01:12:21.336Z,0
2014-08-05T01:12:39.414Z,0
2014-08-05T01:12:57.885Z,0
2014-08-05T01:13:15.978Z,0
2014-08-05T01:13:34.463Z,0
2014-08-05T01:13:52.543Z,0
2014-08-05T01:14:10.824Z,0
2014-08-05T01:14:29.309Z,0
2014-08-05T01:14:47.387Z,0
2014-08-05T01:15:05.685Z,0
2014-08-05T01:15:23.966Z,0
2014-08-05T01:15:42.263Z,0
2014-08-05T01:16:00.547Z,0
2014-08-05T01:16:18.828Z,0
2014-08-05T01:16:37.109Z,0
2014-08-05T01:16:55.391Z,0
2014-08-05T01:17:13.674Z,0
2014-08-05T01:17:31.971Z,0
2014-08-05T01:17:50.455Z,0
2014-08-05T01:18:08.737Z,0
2014-08-05T01:18:26.816Z,0
2014-08-05T01:18:45.097Z,0
2014-08-05T01:19:03.378Z,0
2014-08-05T01:19:21.678Z,0
2014-08-05T01:19:39.959Z,0
2014-08-05T01:19:58.240Z,0
2014-08-05T01:20:16.727Z,0
2014-08-05T01:20:34.805Z,0
2014-08-05T01:20:53.086Z,0
2014-08-05T01:21:11.383Z,0
2014-08-05T01:21:29.854Z,0
2014-08-05T01:21:48.135Z,0
2014-08-05T01:22:06.416Z,0
2014-08-05T01:22:24.512Z,0
2014-08-05T01:22:42.996Z,0
2014-08-05T01:23:01.075Z,0
2014-08-05T01:23:19.356Z,0
2014-08-05T01:23:37.639Z,0
2014-08-05T01:23:55.920Z,0
2014-08-05T01:24:14.202Z,0
2014-08-05T01:24:32.485Z,0
2014-08-05T01:24:50.766Z,0
2014-08-05T01:25:09.047Z,0
2014-08-05T01:25:27.329Z,0
2014-08-05T01:25:45.628Z,0
2014-08-05T01:26:03.910Z,0
2014-08-05T01:26:22.191Z,0
2014-08-05T01:26:40.474Z,0
2014-08-05T01:26:58.755Z,0
2014-08-05T01:27:17.037Z,0
2014-08-05T01:27:35.318Z,0
2014-08-05T01:27:53.600Z,0
2014-08-05T01:28:12.100Z,0
2014-08-05T01:28:30.178Z,0
2014-08-05T01:28:48.462Z,0
2014-08-05T01:29:06.743Z,0
2014-08-05T01:29:29.430Z,0
2014-08-05T01:29:47.917Z,0
2014-08-05T01:30:05.995Z,0
2014-08-05T01:30:24.276Z,0
2014-08-05T01:30:42.557Z,0
2014-08-05T01:31:00.841Z,0
2014-08-05T01:31:19.106Z,0
2014-08-05T01:31:37.387Z,0
2014-08-05T01:31:55.671Z,0
2014-08-05T01:32:13.952Z,0
2014-08-05T01:32:32.233Z,0
2014-08-05T01:32:50.499Z,0
2014-08-05T01:33:08.782Z,0
2014-08-05T01:33:27.063Z,0
2014-08-05T01:33:45.345Z,0
2014-08-05T01:34:03.628Z,0
2014-08-05T01:34:22.097Z,0
2014-08-05T01:34:40.175Z,0
2014-08-05T01:34:58.456Z,0
2014-08-05T01:35:16.740Z,0
2014-08-05T01:35:35.021Z,0
2014-08-05T01:35:53.490Z,0
2014-08-05T01:36:11.569Z,0
2014-08-05T01:36:29.851Z,0
2014-08-05T01:36:48.132Z,0
2014-08-05T01:37:06.397Z,0
2014-08-05T01:37:24.681Z,0
2014-08-05T01:37:42.962Z,0
2014-08-05T01:38:01.228Z,0
2014-08-05T01:38:19.511Z,0
2014-08-05T01:38:37.792Z,0
2014-08-05T01:38:56.276Z,0
2014-08-05T01:39:14.355Z,0
2014-08-05T01:39:32.622Z,0
2014-08-05T01:39:50.903Z,0
2014-08-05T01:40:09.372Z,0
2014-08-05T01:40:27.656Z,0
2014-08-05T01:40:45.735Z,0
2014-08-05T01:41:04.016Z,0
2014-08-05T01:41:22.297Z,0
2014-08-05T01:41:40.580Z,0
2014-08-05T01:41:58.862Z,0
2014-08-05T01:42:17.330Z,0
2014-08-05T01:42:35.614Z,0
2014-08-05T01:42:53.895Z,0
2014-08-05T01:43:11.973Z,0
2014-08-05T01:43:30.254Z,0
2014-08-05T01:43:48.537Z,0
2014-08-05T01:44:07.022Z,0
2014-08-05T01:44:25.100Z,0
2014-08-05T01:44:43.368Z,0
2014-08-05T01:45:01.649Z,0
2014-08-05T01:45:20.133Z,0
2014-08-05T01:45:38.196Z,0
2014-08-05T01:45:56.479Z,0
2014-08-05T01:46:14.760Z,0
2014-08-05T01:46:33.041Z,0
2014-08-05T01:46:51.542Z,0
2014-08-05T01:47:09.621Z,0
2014-08-05T01:47:28.089Z,0
2014-08-05T01:47:46.167Z,0
2014-08-05T01:48:04.451Z,0
2014-08-05T01:48:22.732Z,0
2014-08-05T01:48:41.201Z,0
2014-08-05T01:48:59.282Z,0
2014-08-05T01:49:17.563Z,0
2014-08-05T01:49:36.047Z,0
2014-08-05T01:49:54.127Z,0
2014-08-05T01:50:12.611Z,0
2014-08-05T01:50:30.877Z,0
2014-08-05T01:50:48.970Z,0
2014-08-05T01:51:07.222Z,0
2014-08-05T01:51:25.519Z,0
2014-08-05T01:51:44.004Z,0
2014-08-05T01:52:02.085Z,0
2014-08-05T01:52:20.350Z,0
2014-08-05T01:52:38.647Z,0
2014-08-05T01:52:56.913Z,0
2014-08-05T01:53:15.196Z,0
2014-08-05T01:53:33.477Z,0
2014-08-05T01:53:51.962Z,0
2014-08-05T01:54:10.042Z,0
2014-08-05T01:54:28.323Z,0
2014-08-05T01:54:46.604Z,0
2014-08-05T01:55:04.886Z,0
2014-08-05T01:55:23.153Z,0
2014-08-05T01:55:41.434Z,0
2014-08-05T01:55:59.919Z,0
2014-08-05T01:56:17.999Z,0
2014-08-05T01:56:36.265Z,0
2014-08-05T01:56:54.546Z,0
2014-08-05T01:57:13.030Z,0
2014-08-05T01:57:31.110Z,0
2014-08-05T01:57:49.595Z,0
2014-08-05T01:58:07.860Z,0
2014-08-05T01:58:25.940Z,0
2014-08-05T01:58:44.222Z,0
2014-08-05T01:59:02.503Z,0
2014-08-05T01:59:20.987Z,0
2014-08-05T01:59:39.068Z,0
2014-08-05T01:59:57.334Z,0
2014-08-05T02:00:15.615Z,0
2014-08-05T02:00:34.101Z,0
2014-08-05T02:00:52.179Z,0
2014-08-05T02:01:10.663Z,0
2014-08-05T02:01:28.929Z,0
2014-08-05T02:01:47.025Z,0
2014-08-05T02:02:05.290Z,0
2014-08-05T02:02:23.571Z,0
2014-08-05T02:02:41.855Z,0
2014-08-05T02:03:00.323Z,0
2014-08-05T02:03:18.417Z,0
2014-08-05T02:03:36.886Z,0
2014-08-05T02:03:55.169Z,0
2014-08-05T02:04:13.450Z,0
2014-08-05T02:04:31.732Z,0
2014-08-05T02:04:49.812Z,0
2014-08-05T02:05:08.077Z,0
2014-08-05T02:05:26.562Z,0
2014-08-05T02:05:44.640Z,0
2014-08-05T02:06:02.924Z,0
2014-08-05T02:06:21.409Z,0
2014-08-05T02:06:39.487Z,0
2014-08-05T02:06:57.754Z,0
2014-08-05T02:07:16.051Z,0
2014-08-05T02:07:34.317Z,0
2014-08-05T02:07:52.598Z,0
2014-08-05T02:08:10.881Z,0
2014-08-05T02:08:29.163Z,0
2014-08-05T02:08:47.428Z,0
2014-08-05T02:09:05.710Z,0
2014-08-05T02:09:24.195Z,0
2014-08-05T02:09:42.273Z,0
2014-08-05T02:10:00.539Z,0
2014-08-05T02:10:19.042Z,0
2014-08-05T02:10:37.307Z,0
2014-08-05T02:10:55.385Z,0
2014-08-05T02:11:13.871Z,0
2014-08-05T02:11:31.949Z,0
2014-08-05T02:11:50.230Z,0
2014-08-05T02:12:08.511Z,0
2014-08-05T02:12:26.795Z,0
2014-08-05T02:12:45.060Z,0
2014-08-05T02:13:03.341Z,0
2014-08-05T02:13:21.813Z,0
2014-08-05T02:13:39.907Z,0
2014-08-05T02:13:58.376Z,0
2014-08-05T02:14:16.454Z,0
2014-08-05T02:14:34.737Z,0
2014-08-05T02:14:53.221Z,0
2014-08-05T02:15:11.284Z,0
2014-08-05T02:15:29.567Z,0
2014-08-05T02:15:47.848Z,0
2014-08-05T02:16:06.130Z,0
2014-08-05T02:16:24.411Z,0
2014-08-05T02:16:42.694Z,0
2014-08-05T02:17:00.960Z,0
2014-08-05T02:17:19.241Z,0
2014-08-05T02:17:37.726Z,0
2014-08-05T02:17:56.008Z,0
2014-08-05T02:18:14.273Z,0
2014-08-05T02:18:32.351Z,0
2014-08-05T02:18:50.636Z,0
2014-08-05T02:19:09.120Z,0
2014-08-05T02:19:27.417Z,0
2014-08-05T02:19:45.481Z,0
2014-08-05T02:20:03.966Z,0
2014-08-05T02:20:22.247Z,0
2014-08-05T02:20:40.528Z,0
2014-08-05T02:20:58.609Z,0
2014-08-05T02:21:16.891Z,0
2014-08-05T02:21:35.156Z,0
2014-08-05T02:21:53.439Z,0
2014-08-05T02:22:11.720Z,0
2014-08-05T02:22:30.204Z,0
2014-08-05T02:22:48.282Z,0
2014-08-05T02:23:06.769Z,0
2014-08-05T02:23:24.847Z,0
2014-08-05T02:23:43.316Z,0
2014-08-05T02:24:01.599Z,0
2014-08-05T02:24:19.677Z,0
2014-08-05T02:24:37.958Z,0
2014-08-05T02:24:56.239Z,0
2014-08-05T02:25:14.523Z,0
2014-08-05T02:25:33.007Z,0
2014-08-05T02:25:51.288Z,0
2014-08-05T02:26:09.353Z,0
2014-08-05T02:26:27.634Z,0
2014-08-05T02:26:45.915Z,0
2014-08-05T02:27:04.400Z,0
2014-08-05T02:27:22.480Z,0
2014-08-05T02:27:40.761Z,0
2014-08-05T02:27:59.027Z,0
2014-08-05T02:28:17.514Z,0
2014-08-05T02:28:35.795Z,0
2014-08-05T02:28:53.873Z,0
2014-08-05T02:29:12.139Z,0
2014-08-05T02:29:30.624Z,0
2014-08-05T02:29:48.703Z,0
2014-08-05T02:30:06.984Z,0
2014-08-05T02:30:25.268Z,0
2014-08-05T02:30:43.737Z,0
2014-08-05T02:31:01.815Z,0
2014-08-05T02:31:20.096Z,0
2014-08-05T02:31:38.379Z,0
2014-08-05T02:31:56.661Z,0
2014-08-05T02:32:14.926Z,0
2014-08-05T02:32:33.413Z,0
2014-08-05T02:32:51.694Z,0
2014-08-05T02:33:09.975Z,0
2014-08-05T02:33:28.256Z,0
2014-08-05T02:33:46.336Z,0
2014-08-05T02:34:04.617Z,0
2014-08-05T02:34:22.898Z,0
2014-08-05T02:34:41.369Z,0
2014-08-05T02:34:59.447Z,0
2014-08-05T02:35:17.728Z,0
2014-08-05T02:35:36.213Z,0
2014-08-05T02:35:54.293Z,0
2014-08-05T02:36:12.574Z,0
2014-08-05T02:36:30.855Z,0
2014-08-05T02:36:49.326Z,0
2014-08-05T02:37:07.607Z,0
2014-08-05T02:37:25.685Z,0
2014-08-05T02:37:43.967Z,0
2014-08-05T02:38:02.438Z,0
2014-08-05T02:38:20.720Z,0
2014-08-05T02:38:38.798Z,0
2014-08-05T02:38:57.283Z,0
2014-08-05T02:39:15.564Z,0
2014-08-05T02:39:33.642Z,0
2014-08-05T02:39:51.927Z,0
2014-08-05T02:40:10.192Z,0
2014-08-05T02:40:28.474Z,0
2014-08-05T02:40:46.958Z,0
2014-08-05T02:41:05.022Z,0
2014-08-05T02:41:23.304Z,0
2014-08-05T02:41:41.788Z,0
2014-08-05T02:42:00.071Z,0
2014-08-05T02:42:18.149Z,0
2014-08-05T02:42:36.431Z,0
2014-08-05T02:42:54.712Z,0
2014-08-05T02:43:12.995Z,0
2014-08-05T02:43:31.261Z,0
2014-08-05T02:43:49.745Z,0
2014-08-05T02:44:07.825Z,0
2014-08-05T02:44:26.310Z,0
2014-08-05T02:44:44.388Z,0
2014-08-05T02:45:02.653Z,0
2014-08-05T02:45:20.952Z,0
2014-08-05T02:45:39.421Z,0
2014-08-05T02:45:57.499Z,0
2014-08-05T02:46:15.986Z,0
2014-08-05T02:46:34.064Z,0
2014-08-05T02:46:52.345Z,0
2014-08-05T02:47:10.611Z,0
2014-08-05T02:47:28.894Z,0
2014-08-05T02:47:47.175Z,0
2014-08-05T02:48:05.456Z,0
2014-08-05T02:48:23.724Z,0
2014-08-05T02:48:42.005Z,0
2014-08-05T02:49:00.286Z,0
2014-08-05T02:49:18.568Z,0
2014-08-05T02:49:36.851Z,0
2014-08-05T02:49:55.117Z,0
2014-08-05T02:50:13.601Z,0
2014-08-05T02:50:31.681Z,0
2014-08-05T02:50:49.962Z,0
2014-08-05T02:51:08.431Z,0
2014-08-05T02:51:26.509Z,0
2014-08-05T02:51:44.996Z,0
2014-08-05T02:52:03.074Z,0
2014-08-05T02:52:21.558Z,0
2014-08-05T02:52:39.639Z,0
2014-08-05T02:52:57.920Z,0
2014-08-05T02:53:16.389Z,0
2014-08-05T02:53:34.467Z,0
2014-08-05T02:53:52.750Z,0
2014-08-05T02:54:11.031Z,0
2014-08-05T02:54:29.312Z,0
2014-08-05T02:54:47.595Z,0
2014-08-05T02:55:05.861Z,0
2014-08-05T02:55:24.142Z,0
2014-08-05T02:55:42.423Z,0
2014-08-05T02:56:00.707Z,0
2014-08-05T02:56:18.972Z,0
2014-08-05T02:56:37.472Z,0
2014-08-05T02:56:55.741Z,0
2014-08-05T02:57:13.819Z,0
2014-08-05T02:57:32.303Z,0
2014-08-05T02:57:50.382Z,0
2014-08-05T02:58:08.664Z,0
2014-08-05T02:58:27.133Z,0
2014-08-05T02:58:45.226Z,0
2014-08-05T02:59:03.494Z,0
2014-08-05T02:59:21.978Z,0
2014-08-05T02:59:40.056Z,0
2014-08-05T02:59:58.340Z,0
2014-08-05T03:00:16.824Z,0
2014-08-05T03:00:34.902Z,0
2014-08-05T03:00:53.389Z,0
2014-08-05T03:01:11.467Z,0
2014-08-05T03:01:29.748Z,0
2014-08-05T03:01:48.029Z,0
2014-08-05T03:02:06.313Z,0
2014-08-05T03:02:24.798Z,0
2014-08-05T03:02:43.063Z,0
2014-08-05T03:03:01.346Z,0
2014-08-05T03:03:19.424Z,0
2014-08-05T03:03:37.908Z,0
2014-08-05T03:03:55.986Z,0
2014-08-05T03:04:14.254Z,0
2014-08-05T03:04:32.535Z,0
2014-08-05T03:04:51.004Z,0
2014-08-05T03:05:09.287Z,0
2014-08-05T03:05:27.365Z,0
2014-08-05T03:05:45.850Z,0
2014-08-05T03:06:03.928Z,0
2014-08-05T03:06:22.414Z,0
2014-08-05T03:06:40.508Z,0
2014-08-05T03:06:58.774Z,0
2014-08-05T03:07:17.057Z,0
2014-08-05T03:07:35.541Z,0
2014-08-05T03:07:53.619Z,0
2014-08-05T03:08:11.885Z,0
2014-08-05T03:08:30.371Z,0
2014-08-05T03:08:48.653Z,1
2014-08-05T03:09:06.731Z,1
2014-08-05T03:09:25.015Z,1
2014-08-05T03:09:43.499Z,1
2014-08-05T03:10:01.577Z,1
2014-08-05T03:10:19.859Z,1
2014-08-05T03:10:38.141Z,1
2014-08-05T03:10:56.407Z,2
2014-08-05T03:11:14.688Z,2
2014-08-05T03:11:33.175Z,2
2014-08-05T03:11:51.456Z,2
2014-08-05T03:12:09.535Z,2
2014-08-05T03:12:27.816Z,2
2014-08-05T03:12:46.083Z,2
2014-08-05T03:13:04.365Z,3
2014-08-05T03:13:22.849Z,3
2014-08-05T03:13:40.929Z,3
2014-08-05T03:13:59.195Z,4
2014-08-05T03:14:17.679Z,4
2014-08-05T03:14:35.960Z,4
2014-08-05T03:15:15.056Z,5
2014-08-05T03:15:33.541Z,5
2014-08-05T03:15:51.619Z,5
2014-08-05T03:16:10.121Z,6
2014-08-05T03:16:28.199Z,6
2014-08-05T03:16:46.480Z,6
2014-08-05T03:17:04.779Z,6
2014-08-05T03:17:23.045Z,7
2014-08-05T03:17:41.529Z,7
2014-08-05T03:17:59.812Z,7
2014-08-05T03:18:17.890Z,8
2014-08-05T03:18:36.187Z,8
2014-08-05T03:18:54.468Z,8
2014-08-05T03:19:12.752Z,9
2014-08-05T03:19:31.236Z,9
2014-08-05T03:19:49.314Z,9
2014-08-05T03:20:07.801Z,10
2014-08-05T03:20:25.879Z,10
2014-08-05T03:20:44.176Z,11
2014-08-05T03:21:02.660Z,11
2014-08-05T03:21:20.756Z,11
2014-08-05T03:21:39.037Z,12
2014-08-05T03:21:57.334Z,12
2014-08-05T03:22:15.617Z,12
2014-08-05T03:22:33.898Z,13
2014-08-05T03:22:52.180Z,13
2014-08-05T03:23:10.461Z,14
2014-08-05T03:23:28.760Z,14
2014-08-05T03:23:47.244Z,15
2014-08-05T03:24:05.338Z,15
2014-08-05T03:24:23.621Z,16
2014-08-05T03:24:41.918Z,16
2014-08-05T03:25:00.199Z,16
2014-08-05T03:25:18.512Z,17
2014-08-05T03:25:36.998Z,17
2014-08-05T03:25:55.076Z,18
2014-08-05T03:26:13.357Z,18
2014-08-05T03:26:31.641Z,19
2014-08-05T03:26:50.141Z,19
2014-08-05T03:27:08.219Z,19
2014-08-05T03:27:26.531Z,20
2014-08-05T03:27:45.018Z,20
2014-08-05T03:28:03.096Z,21
2014-08-05T03:28:21.596Z,21
2014-08-05T03:28:39.879Z,22
2014-08-05T03:28:57.973Z,22
2014-08-05T03:29:16.254Z,22
2014-08-05T03:29:34.738Z,23
2014-08-05T03:29:52.819Z,23
2014-08-05T03:30:11.115Z,23
2014-08-05T03:30:29.600Z,24
2014-08-05T03:30:47.681Z,24
2014-08-05T03:31:05.962Z,24
2014-08-05T03:31:24.243Z,25
2014-08-05T03:31:42.743Z,25
2014-08-05T03:32:00.823Z,25
2014-08-05T03:32:19.119Z,26
2014-08-05T03:32:37.604Z,26
2014-08-05T03:32:55.685Z,27
2014-08-05T03:33:13.982Z,27
2014-08-05T03:33:32.263Z,27
2014-08-05T03:33:50.544Z,28
2014-08-05T03:34:08.842Z,28
2014-08-05T03:34:27.123Z,29
2014-08-05T03:34:45.405Z,29
2014-08-05T03:35:03.891Z,30
2014-08-05T03:35:22.188Z,30
2014-08-05T03:35:40.282Z,30
2014-08-05T03:35:58.547Z,31
2014-08-05T03:36:16.847Z,31
2014-08-05T03:36:35.332Z,31
2014-08-05T03:36:53.410Z,32
2014-08-05T03:37:11.708Z,31
2014-08-05T03:37:29.989Z,32
2014-08-05T03:37:48.473Z,32
2014-08-05T03:38:06.567Z,31
2014-08-05T03:38:25.054Z,31
2014-08-05T03:38:43.132Z,31
2014-08-05T03:39:01.429Z,31
2014-08-05T03:39:19.916Z,31
2014-08-05T03:39:38.197Z,31
2014-08-05T03:39:56.291Z,30
2014-08-05T03:40:14.775Z,30
2014-08-05T03:40:32.855Z,30
2014-08-05T03:40:51.136Z,30
2014-08-05T03:41:09.433Z,30
2014-08-05T03:41:27.920Z,30
2014-08-05T03:41:46.013Z,31
2014-08-05T03:42:04.295Z,31
2014-08-05T03:42:22.576Z,31
2014-08-05T03:42:41.062Z,31
2014-08-05T03:42:59.140Z,31
2014-08-05T03:43:17.437Z,31
2014-08-05T03:43:35.924Z,31
2014-08-05T03:43:54.002Z,31
2014-08-05T03:44:12.299Z,31
2014-08-05T03:44:30.580Z,31
2014-08-05T03:44:48.863Z,31
2014-08-05T03:45:07.144Z,31
2014-08-05T03:45:25.644Z,32
2014-08-05T03:45:43.725Z,32
2014-08-05T03:46:02.021Z,32
2014-08-05T03:46:20.303Z,32
2014-08-05T03:46:38.584Z,32
2014-08-05T03:46:56.867Z,32
2014-08-05T03:47:15.164Z,32
2014-08-05T03:47:33.445Z,33
2014-08-05T03:47:51.729Z,33
2014-08-05T03:48:10.010Z,33
2014-08-05T03:48:28.291Z,33
2014-08-05T03:48:46.588Z,34
2014-08-05T03:49:04.871Z,34
2014-08-05T03:49:23.356Z,34
2014-08-05T03:49:41.449Z,35
2014-08-05T03:49:59.936Z,35
2014-08-05T03:50:18.029Z,35
2014-08-05T03:50:36.311Z,36
2014-08-05T03:50:54.795Z,36
2014-08-05T03:51:12.876Z,37
2014-08-05T03:51:31.157Z,37
2014-08-05T03:51:49.454Z,37
2014-08-05T03:52:07.737Z,37
2014-08-05T03:52:26.018Z,38
2014-08-05T03:52:44.502Z,38
2014-08-05T03:53:02.783Z,38
2014-08-05T03:53:20.880Z,38
2014-08-05T03:53:39.161Z,39
2014-08-05T03:53:57.443Z,39
2014-08-05T03:54:15.741Z,39
2014-08-05T03:54:34.022Z,39
2014-08-05T03:54:52.506Z,39
2014-08-05T03:55:10.787Z,39
2014-08-05T03:55:29.071Z,39
2014-08-05T03:55:47.352Z,39
2014-08-05T03:56:05.446Z,39
2014-08-05T03:56:23.730Z,39
2014-08-05T03:56:42.011Z,39
2014-08-05T03:57:00.292Z,39
2014-08-05T03:57:18.589Z,39
2014-08-05T03:57:36.872Z,39
2014-08-05T03:57:55.153Z,40
2014-08-05T03:58:13.450Z,40
2014-08-05T03:58:31.734Z,40
2014-08-05T03:58:50.015Z,40
2014-08-05T03:59:08.515Z,40
2014-08-05T03:59:26.593Z,40
2014-08-05T03:59:44.876Z,41
2014-08-05T04:00:03.157Z,41
2014-08-05T04:00:21.641Z,41
2014-08-05T04:00:39.738Z,41
2014-08-05T04:00:58.019Z,42
2014-08-05T04:01:16.504Z,42
2014-08-05T04:01:34.597Z,43
2014-08-05T04:01:52.880Z,43
2014-08-05T04:02:11.161Z,44
2014-08-05T04:02:29.458Z,45
2014-08-05T04:02:47.945Z,45
2014-08-05T04:03:06.226Z,46
2014-08-05T04:03:24.304Z,47
2014-08-05T04:03:42.601Z,48
2014-08-05T04:04:00.885Z,48
2014-08-05T04:04:19.166Z,48
2014-08-05T04:04:37.447Z,49
2014-08-05T04:04:55.746Z,49
2014-08-05T04:05:14.230Z,50
2014-08-05T04:05:32.308Z,50
2014-08-05T04:05:50.605Z,51
2014-08-05T04:06:08.889Z,51
2014-08-05T04:06:27.170Z,51
2014-08-05T04:06:45.451Z,51
2014-08-05T04:07:03.734Z,52
2014-08-05T04:07:22.031Z,52
2014-08-05T04:07:40.312Z,52
2014-08-05T04:07:58.596Z,53
2014-08-05T04:08:17.080Z,53
2014-08-05T04:08:35.174Z,54
2014-08-05T04:08:53.455Z,55
2014-08-05T04:09:11.941Z,55
2014-08-05T04:09:30.238Z,55
2014-08-05T04:09:48.316Z,56
2014-08-05T04:10:06.599Z,56
2014-08-05T04:10:24.896Z,56
2014-08-05T04:10:43.380Z,57
2014-08-05T04:11:01.661Z,57
2014-08-05T04:11:19.758Z,57
2014-08-05T04:11:38.039Z,58
2014-08-05T04:11:56.320Z,58
2014-08-05T04:12:14.807Z,59
2014-08-05T04:12:32.885Z,59
2014-08-05T04:12:51.182Z,59
2014-08-05T04:13:09.666Z,60
2014-08-05T04:13:27.762Z,61
2014-08-05T04:13:46.043Z,61
2014-08-05T04:14:04.528Z,61
2014-08-05T04:14:22.826Z,62
2014-08-05T04:14:41.108Z,62
2014-08-05T04:14:59.186Z,62
2014-08-05T04:15:17.467Z,63
2014-08-05T04:15:35.766Z,63
2014-08-05T04:15:54.250Z,64
2014-08-05T04:16:12.328Z,64
2014-08-05T04:16:30.815Z,64
2014-08-05T04:16:48.909Z,66
2014-08-05T04:17:07.190Z,66
2014-08-05T04:17:25.471Z,66
2014-08-05T04:17:43.755Z,67
2014-08-05T04:18:02.255Z,68
2014-08-05T04:18:20.333Z,68
2014-08-05T04:18:38.616Z,68
2014-08-05T04:18:56.913Z,69
2014-08-05T04:19:15.397Z,69
2014-08-05T04:19:33.475Z,70
2014-08-05T04:19:51.758Z,71
2014-08-05T04:20:10.258Z,72
2014-08-05T04:20:28.540Z,72
2014-08-05T04:20:46.823Z,73
2014-08-05T04:21:04.917Z,73
2014-08-05T04:21:23.198Z,70
2014-08-05T04:21:41.682Z,70
2014-08-05T04:21:59.778Z,71
2014-08-05T04:22:18.059Z,72
2014-08-05T04:22:36.340Z,73
2014-08-05T04:22:54.624Z,74
2014-08-05T04:23:13.124Z,75
2014-08-05T04:23:31.202Z,75
2014-08-05T04:23:49.483Z,77
2014-08-05T04:24:07.767Z,78
2014-08-05T04:24:26.064Z,79
2014-08-05T04:24:44.549Z,80
2014-08-05T04:25:02.628Z,82
2014-08-05T04:25:20.909Z,83
2014-08-05T04:25:39.190Z,84
2014-08-05T04:25:57.690Z,86
2014-08-05T04:26:15.771Z,87
2014-08-05T04:26:34.053Z,86
2014-08-05T04:26:52.349Z,90
2014-08-05T04:27:10.633Z,91
2014-08-05T04:27:28.930Z,93
2014-08-05T04:27:47.211Z,93
2014-08-05T04:28:05.508Z,95